Portada
METAR-TAF:

METAR-TAF

Aeroports :

Chihuahua, Mèxic

latitud: 28-42N, longitud: 105-58W, altitud: 1360 m

Observació

L'informe es va fer fa 1 hora i 9 minuts, a les 22:40 UTC
Vent 5 kt del Est/Nord-Est
Temperatura 10°C
Humitat 17%
Pressió 1028 hPa
Visibilitat: 16.1 km
Cel clar

METAR: MMCU 262240Z 06005KT 10SM SKC 10/M14 A3036

Hora: 16:49 (23:49 UTC)

Pronòstic

L'informe es va fer fa 7 hores i 17 minuts, a les 16:32 UTC
Pronòstic vàlid del 26 a les 18 UTC al 27 a les 18 UTC
Vent 15 kt del Est/Nord-Est
Visibilitat: 10 km
Cel clar
A partir de les 27 a les 0000 UTC
Vent 10 kt del Est/Sud-Est
Visibilitat: 10 km
Cel clar
A partir de les 27 a les 1200 UTC
Vent kt del Nord
Visibilitat: 10 km
Cel clar

TAF: MMCU 261632Z 2618/2718 06015KT P6SM SKC FM270000 12010KT P6SM SKC FM271200 00000KT P6SM SKC

Observacions i pronòstics meteorològics de més de 4000 aeroports (METAR i TAF).

Les estacions disponibles són els punts grocs i vermells al mapa.

Posi el ratolí al punt desitjat per veure el nom de l'estació.

Feu clic per veure les observacions i els pronòstics meteorològics.

Per canviar el mapa: feu clic els botons verds amb una creu de color negre per apropar; al botó verd amb un guió per allunyar la imatge; o en les fletxes verdes per a mapes adjacents.


METAR-TAF: